sensor_id;sensor_type;location;lat;lon;timestamp;temperature;humidity
22558;DHT22;11445;53.816;8.902;2023-01-24T00:00:41;3.40;99.90
22558;DHT22;11445;53.816;8.902;2023-01-24T00:03:10;3.40;99.90
22558;DHT22;11445;53.816;8.902;2023-01-24T00:05:38;3.40;99.90
22558;DHT22;11445;53.816;8.902;2023-01-24T00:08:05;3.40;99.90
22558;DHT22;11445;53.816;8.902;2023-01-24T00:10:32;3.40;99.90
22558;DHT22;11445;53.816;8.902;2023-01-24T00:12:59;3.40;99.90
22558;DHT22;11445;53.816;8.902;2023-01-24T00:15:26;3.40;99.90
22558;DHT22;11445;53.816;8.902;2023-01-24T00:17:53;3.40;99.90
22558;DHT22;11445;53.816;8.902;2023-01-24T00:20:22;3.40;99.90
22558;DHT22;11445;53.816;8.902;2023-01-24T00:22:49;3.40;99.90
22558;DHT22;11445;53.816;8.902;2023-01-24T00:25:16;3.40;99.90
22558;DHT22;11445;53.816;8.902;2023-01-24T00:27:43;3.40;99.90
22558;DHT22;11445;53.816;8.902;2023-01-24T00:30:11;3.40;99.90
22558;DHT22;11445;53.816;8.902;2023-01-24T00:32:38;3.40;99.90
22558;DHT22;11445;53.816;8.902;2023-01-24T00:35:05;3.40;99.90
22558;DHT22;11445;53.816;8.902;2023-01-24T00:37:34;3.40;99.90
22558;DHT22;11445;53.816;8.902;2023-01-24T00:40:01;3.40;99.90
22558;DHT22;11445;53.816;8.902;2023-01-24T00:42:28;3.40;99.90
22558;DHT22;11445;53.816;8.902;2023-01-24T00:44:55;3.40;99.90
22558;DHT22;11445;53.816;8.902;2023-01-24T00:47:22;3.40;99.90
22558;DHT22;11445;53.816;8.902;2023-01-24T00:49:50;3.40;99.90
22558;DHT22;11445;53.816;8.902;2023-01-24T00:52:17;3.40;99.90
22558;DHT22;11445;53.816;8.902;2023-01-24T00:54:46;3.40;99.90
22558;DHT22;11445;53.816;8.902;2023-01-24T00:57:13;3.40;99.90
22558;DHT22;11445;53.816;8.902;2023-01-24T00:59:40;3.40;99.90
22558;DHT22;11445;53.816;8.902;2023-01-24T01:02:07;3.40;99.90
22558;DHT22;11445;53.816;8.902;2023-01-24T01:04:34;3.40;99.90
22558;DHT22;11445;53.816;8.902;2023-01-24T01:07:01;3.40;99.90
22558;DHT22;11445;53.816;8.902;2023-01-24T01:09:28;3.40;99.90
22558;DHT22;11445;53.816;8.902;2023-01-24T01:11:57;3.40;99.90
22558;DHT22;11445;53.816;8.902;2023-01-24T01:14:24;3.40;99.90
22558;DHT22;11445;53.816;8.902;2023-01-24T01:16:51;3.40;99.90
22558;DHT22;11445;53.816;8.902;2023-01-24T01:19:18;3.40;99.90
22558;DHT22;11445;53.816;8.902;2023-01-24T01:21:45;3.40;99.90
22558;DHT22;11445;53.816;8.902;2023-01-24T01:24:13;3.40;99.90
22558;DHT22;11445;53.816;8.902;2023-01-24T01:26:40;3.40;99.90
22558;DHT22;11445;53.816;8.902;2023-01-24T01:29:08;3.40;99.90
22558;DHT22;11445;53.816;8.902;2023-01-24T01:31:35;3.40;99.90
22558;DHT22;11445;53.816;8.902;2023-01-24T01:34:02;3.40;99.90
22558;DHT22;11445;53.816;8.902;2023-01-24T01:36:29;3.40;99.90
22558;DHT22;11445;53.816;8.902;2023-01-24T01:38:56;3.40;99.90
22558;DHT22;11445;53.816;8.902;2023-01-24T01:41:24;3.40;99.90
22558;DHT22;11445;53.816;8.902;2023-01-24T01:43:51;3.40;99.90
22558;DHT22;11445;53.816;8.902;2023-01-24T01:46:40;3.40;99.90
22558;DHT22;11445;53.816;8.902;2023-01-24T01:49:15;3.40;99.90
22558;DHT22;11445;53.816;8.902;2023-01-24T01:51:46;3.40;99.90
22558;DHT22;11445;53.816;8.902;2023-01-24T01:54:16;3.40;99.90
22558;DHT22;11445;53.816;8.902;2023-01-24T01:56:47;3.40;99.90
22558;DHT22;11445;53.816;8.902;2023-01-24T01:59:16;3.40;99.90
22558;DHT22;11445;53.816;8.902;2023-01-24T02:01:48;3.40;99.90
22558;DHT22;11445;53.816;8.902;2023-01-24T02:04:20;3.40;99.90
22558;DHT22;11445;53.816;8.902;2023-01-24T02:06:52;3.40;99.90
22558;DHT22;11445;53.816;8.902;2023-01-24T02:09:23;3.40;99.90
22558;DHT22;11445;53.816;8.902;2023-01-24T02:11:52;3.40;99.90
22558;DHT22;11445;53.816;8.902;2023-01-24T02:14:21;3.40;99.90
22558;DHT22;11445;53.816;8.902;2023-01-24T02:17:08;3.40;99.90
22558;DHT22;11445;53.816;8.902;2023-01-24T02:19:58;3.40;99.90
22558;DHT22;11445;53.816;8.902;2023-01-24T02:22:35;3.40;99.90
22558;DHT22;11445;53.816;8.902;2023-01-24T02:25:12;3.40;99.90
22558;DHT22;11445;53.816;8.902;2023-01-24T02:27:42;3.40;99.90
22558;DHT22;11445;53.816;8.902;2023-01-24T02:30:10;3.40;99.90
22558;DHT22;11445;53.816;8.902;2023-01-24T02:32:37;3.40;99.90
22558;DHT22;11445;53.816;8.902;2023-01-24T02:35:05;3.40;99.90
22558;DHT22;11445;53.816;8.902;2023-01-24T02:37:34;3.40;99.90
22558;DHT22;11445;53.816;8.902;2023-01-24T02:40:04;3.40;99.90
22558;DHT22;11445;53.816;8.902;2023-01-24T02:42:35;3.40;99.90
22558;DHT22;11445;53.816;8.902;2023-01-24T02:45:10;3.40;99.90
22558;DHT22;11445;53.816;8.902;2023-01-24T02:47:42;3.40;99.90
22558;DHT22;11445;53.816;8.902;2023-01-24T02:50:10;3.40;99.90
22558;DHT22;11445;53.816;8.902;2023-01-24T02:52:37;3.40;99.90
22558;DHT22;11445;53.816;8.902;2023-01-24T02:55:22;3.40;99.90
22558;DHT22;11445;53.816;8.902;2023-01-24T02:57:50;3.40;99.90
22558;DHT22;11445;53.816;8.902;2023-01-24T03:00:33;3.40;99.90
22558;DHT22;11445;53.816;8.902;2023-01-24T03:03:01;3.40;99.90
22558;DHT22;11445;53.816;8.902;2023-01-24T03:05:29;3.40;99.90
22558;DHT22;11445;53.816;8.902;2023-01-24T03:08:06;3.40;99.90
22558;DHT22;11445;53.816;8.902;2023-01-24T03:10:34;3.40;99.90
22558;DHT22;11445;53.816;8.902;2023-01-24T03:13:01;3.40;99.90
22558;DHT22;11445;53.816;8.902;2023-01-24T03:15:47;3.40;99.90
22558;DHT22;11445;53.816;8.902;2023-01-24T03:18:31;3.40;99.90
22558;DHT22;11445;53.816;8.902;2023-01-24T03:21:15;3.40;99.90
22558;DHT22;11445;53.816;8.902;2023-01-24T03:24:00;3.40;99.90
22558;DHT22;11445;53.816;8.902;2023-01-24T03:26:44;3.40;99.90
22558;DHT22;11445;53.816;8.902;2023-01-24T03:29:29;3.40;99.90
22558;DHT22;11445;53.816;8.902;2023-01-24T03:32:15;3.40;99.90
22558;DHT22;11445;53.816;8.902;2023-01-24T03:34:59;3.40;99.90
22558;DHT22;11445;53.816;8.902;2023-01-24T03:37:26;3.40;99.90
22558;DHT22;11445;53.816;8.902;2023-01-24T03:40:13;3.40;99.90
22558;DHT22;11445;53.816;8.902;2023-01-24T03:42:40;3.40;99.90
22558;DHT22;11445;53.816;8.902;2023-01-24T03:45:14;3.40;99.90
22558;DHT22;11445;53.816;8.902;2023-01-24T03:47:44;3.40;99.90
22558;DHT22;11445;53.816;8.902;2023-01-24T03:50:20;3.40;99.90
22558;DHT22;11445;53.816;8.902;2023-01-24T03:53:06;3.30;99.90
22558;DHT22;11445;53.816;8.902;2023-01-24T03:55:33;3.30;99.90
22558;DHT22;11445;53.816;8.902;2023-01-24T03:58:01;3.30;99.90
22558;DHT22;11445;53.816;8.902;2023-01-24T04:00:28;3.30;99.90
22558;DHT22;11445;53.816;8.902;2023-01-24T04:02:56;3.30;99.90
22558;DHT22;11445;53.816;8.902;2023-01-24T04:05:23;3.30;99.90
22558;DHT22;11445;53.816;8.902;2023-01-24T04:07:50;3.30;99.90
22558;DHT22;11445;53.816;8.902;2023-01-24T04:10:17;3.30;99.90
22558;DHT22;11445;53.816;8.902;2023-01-24T04:12:44;3.30;99.90
22558;DHT22;11445;53.816;8.902;2023-01-24T04:15:15;3.30;99.90
22558;DHT22;11445;53.816;8.902;2023-01-24T04:17:42;3.30;99.90
22558;DHT22;11445;53.816;8.902;2023-01-24T04:20:12;3.40;99.90
22558;DHT22;11445;53.816;8.902;2023-01-24T04:22:39;3.40;99.90
22558;DHT22;11445;53.816;8.902;2023-01-24T04:25:07;3.40;99.90
22558;DHT22;11445;53.816;8.902;2023-01-24T04:27:35;3.40;99.90
22558;DHT22;11445;53.816;8.902;2023-01-24T04:30:03;3.40;99.90
22558;DHT22;11445;53.816;8.902;2023-01-24T04:32:31;3.40;99.90
22558;DHT22;11445;53.816;8.902;2023-01-24T04:34:58;3.40;99.90
22558;DHT22;11445;53.816;8.902;2023-01-24T04:37:27;3.40;99.90
22558;DHT22;11445;53.816;8.902;2023-01-24T04:39:54;3.40;99.90
22558;DHT22;11445;53.816;8.902;2023-01-24T04:42:21;3.40;99.90
22558;DHT22;11445;53.816;8.902;2023-01-24T04:44:48;3.40;99.90
22558;DHT22;11445;53.816;8.902;2023-01-24T04:47:15;3.40;99.90
22558;DHT22;11445;53.816;8.902;2023-01-24T04:49:42;3.40;99.90
22558;DHT22;11445;53.816;8.902;2023-01-24T04:52:09;3.40;99.90
22558;DHT22;11445;53.816;8.902;2023-01-24T04:54:38;3.40;99.90
22558;DHT22;11445;53.816;8.902;2023-01-24T04:57:05;3.40;99.90
22558;DHT22;11445;53.816;8.902;2023-01-24T04:59:33;3.30;99.90
22558;DHT22;11445;53.816;8.902;2023-01-24T05:02:00;3.30;99.90
22558;DHT22;11445;53.816;8.902;2023-01-24T05:04:27;3.30;99.90
22558;DHT22;11445;53.816;8.902;2023-01-24T05:06:54;3.30;99.90
22558;DHT22;11445;53.816;8.902;2023-01-24T05:09:21;3.30;99.90
22558;DHT22;11445;53.816;8.902;2023-01-24T05:11:50;3.30;99.90
22558;DHT22;11445;53.816;8.902;2023-01-24T05:14:17;3.30;99.90
22558;DHT22;11445;53.816;8.902;2023-01-24T05:16:44;3.30;99.90
22558;DHT22;11445;53.816;8.902;2023-01-24T05:19:11;3.30;99.90
22558;DHT22;11445;53.816;8.902;2023-01-24T05:21:38;3.30;99.90
22558;DHT22;11445;53.816;8.902;2023-01-24T05:24:06;3.30;99.90
22558;DHT22;11445;53.816;8.902;2023-01-24T05:26:33;3.30;99.90
22558;DHT22;11445;53.816;8.902;2023-01-24T05:29:01;3.40;99.90
22558;DHT22;11445;53.816;8.902;2023-01-24T05:31:28;3.40;99.90
22558;DHT22;11445;53.816;8.902;2023-01-24T05:33:55;3.40;99.90
22558;DHT22;11445;53.816;8.902;2023-01-24T05:36:23;3.40;99.90
22558;DHT22;11445;53.816;8.902;2023-01-24T05:38:51;3.40;99.90
22558;DHT22;11445;53.816;8.902;2023-01-24T05:41:19;3.40;99.90
22558;DHT22;11445;53.816;8.902;2023-01-24T05:43:46;3.40;99.90
22558;DHT22;11445;53.816;8.902;2023-01-24T05:46:16;3.30;99.90
22558;DHT22;11445;53.816;8.902;2023-01-24T05:48:44;3.30;99.90
22558;DHT22;11445;53.816;8.902;2023-01-24T05:51:14;3.30;99.90
22558;DHT22;11445;53.816;8.902;2023-01-24T05:53:42;3.40;99.90
22558;DHT22;11445;53.816;8.902;2023-01-24T05:56:11;3.40;99.90
22558;DHT22;11445;53.816;8.902;2023-01-24T05:58:40;3.40;99.90
22558;DHT22;11445;53.816;8.902;2023-01-24T06:01:07;3.30;99.90
22558;DHT22;11445;53.816;8.902;2023-01-24T06:03:39;3.30;99.90
22558;DHT22;11445;53.816;8.902;2023-01-24T06:06:07;3.30;99.90
22558;DHT22;11445;53.816;8.902;2023-01-24T06:08:34;3.30;99.90
22558;DHT22;11445;53.816;8.902;2023-01-24T06:11:03;3.30;99.90
22558;DHT22;11445;53.816;8.902;2023-01-24T06:13:30;3.30;99.90
22558;DHT22;11445;53.816;8.902;2023-01-24T06:16:01;3.30;99.90
22558;DHT22;11445;53.816;8.902;2023-01-24T06:18:28;3.30;99.90
22558;DHT22;11445;53.816;8.902;2023-01-24T06:20:57;3.30;99.90
22558;DHT22;11445;53.816;8.902;2023-01-24T06:23:26;3.30;99.90
22558;DHT22;11445;53.816;8.902;2023-01-24T06:25:54;3.30;99.90
22558;DHT22;11445;53.816;8.902;2023-01-24T06:28:22;3.30;99.90
22558;DHT22;11445;53.816;8.902;2023-01-24T06:30:55;3.30;99.90
22558;DHT22;11445;53.816;8.902;2023-01-24T06:33:36;3.30;99.90
22558;DHT22;11445;53.816;8.902;2023-01-24T06:36:21;3.30;99.90
22558;DHT22;11445;53.816;8.902;2023-01-24T06:38:51;3.30;99.90
22558;DHT22;11445;53.816;8.902;2023-01-24T06:41:18;3.30;99.90
22558;DHT22;11445;53.816;8.902;2023-01-24T06:43:46;3.30;99.90
22558;DHT22;11445;53.816;8.902;2023-01-24T06:46:13;3.30;99.90
22558;DHT22;11445;53.816;8.902;2023-01-24T06:48:42;3.20;99.90
22558;DHT22;11445;53.816;8.902;2023-01-24T06:51:12;3.20;99.90
22558;DHT22;11445;53.816;8.902;2023-01-24T06:53:39;3.30;99.90
22558;DHT22;11445;53.816;8.902;2023-01-24T06:56:07;3.50;99.90
22558;DHT22;11445;53.816;8.902;2023-01-24T06:58:35;3.90;99.90
22558;DHT22;11445;53.816;8.902;2023-01-24T07:01:02;4.10;99.90
22558;DHT22;11445;53.816;8.902;2023-01-24T07:03:29;4.10;99.90
22558;DHT22;11445;53.816;8.902;2023-01-24T07:05:56;4.10;99.90
22558;DHT22;11445;53.816;8.902;2023-01-24T07:08:24;4.00;99.90
22558;DHT22;11445;53.816;8.902;2023-01-24T07:10:51;3.90;99.90
22558;DHT22;11445;53.816;8.902;2023-01-24T07:13:18;3.80;99.90
22558;DHT22;11445;53.816;8.902;2023-01-24T07:15:45;3.70;99.90
22558;DHT22;11445;53.816;8.902;2023-01-24T07:18:13;3.60;99.90
22558;DHT22;11445;53.816;8.902;2023-01-24T07:20:42;3.60;99.90
22558;DHT22;11445;53.816;8.902;2023-01-24T07:23:19;3.50;99.90
22558;DHT22;11445;53.816;8.902;2023-01-24T07:25:49;3.50;99.90
22558;DHT22;11445;53.816;8.902;2023-01-24T07:28:16;3.40;99.90
22558;DHT22;11445;53.816;8.902;2023-01-24T07:30:43;3.40;99.90
22558;DHT22;11445;53.816;8.902;2023-01-24T07:33:11;3.40;99.90
22558;DHT22;11445;53.816;8.902;2023-01-24T07:35:39;3.40;99.90
22558;DHT22;11445;53.816;8.902;2023-01-24T07:38:06;3.40;99.90
22558;DHT22;11445;53.816;8.902;2023-01-24T07:40:35;3.40;99.90
22558;DHT22;11445;53.816;8.902;2023-01-24T07:43:04;3.40;99.90
22558;DHT22;11445;53.816;8.902;2023-01-24T07:45:32;3.40;99.90
22558;DHT22;11445;53.816;8.902;2023-01-24T07:48:01;3.30;99.90
22558;DHT22;11445;53.816;8.902;2023-01-24T07:50:28;3.40;99.90
22558;DHT22;11445;53.816;8.902;2023-01-24T07:52:57;3.30;99.90
22558;DHT22;11445;53.816;8.902;2023-01-24T07:55:25;3.30;99.90
22558;DHT22;11445;53.816;8.902;2023-01-24T07:57:56;3.30;99.90
22558;DHT22;11445;53.816;8.902;2023-01-24T08:00:25;3.30;99.90
22558;DHT22;11445;53.816;8.902;2023-01-24T08:02:52;3.30;99.90
22558;DHT22;11445;53.816;8.902;2023-01-24T08:05:19;3.30;99.90
22558;DHT22;11445;53.816;8.902;2023-01-24T08:07:46;3.30;99.90
22558;DHT22;11445;53.816;8.902;2023-01-24T08:10:13;3.30;99.90
22558;DHT22;11445;53.816;8.902;2023-01-24T08:12:40;3.30;99.90
22558;DHT22;11445;53.816;8.902;2023-01-24T08:15:08;3.30;99.90
22558;DHT22;11445;53.816;8.902;2023-01-24T08:17:37;3.30;99.90
22558;DHT22;11445;53.816;8.902;2023-01-24T08:20:06;3.30;99.90
22558;DHT22;11445;53.816;8.902;2023-01-24T08:22:34;3.30;99.90
22558;DHT22;11445;53.816;8.902;2023-01-24T08:25:01;3.30;99.90
22558;DHT22;11445;53.816;8.902;2023-01-24T08:27:28;3.30;99.90
22558;DHT22;11445;53.816;8.902;2023-01-24T08:29:55;3.30;99.90
22558;DHT22;11445;53.816;8.902;2023-01-24T08:32:22;3.30;99.90
22558;DHT22;11445;53.816;8.902;2023-01-24T08:34:50;3.30;99.90
22558;DHT22;11445;53.816;8.902;2023-01-24T08:37:17;3.30;99.90
22558;DHT22;11445;53.816;8.902;2023-01-24T08:39:44;3.30;99.90
22558;DHT22;11445;53.816;8.902;2023-01-24T08:42:12;3.30;99.90
22558;DHT22;11445;53.816;8.902;2023-01-24T08:44:39;3.30;99.90
22558;DHT22;11445;53.816;8.902;2023-01-24T08:47:06;3.30;99.90
22558;DHT22;11445;53.816;8.902;2023-01-24T08:49:33;3.30;99.90
22558;DHT22;11445;53.816;8.902;2023-01-24T08:52:01;3.30;99.90
22558;DHT22;11445;53.816;8.902;2023-01-24T08:54:29;3.30;99.90
22558;DHT22;11445;53.816;8.902;2023-01-24T08:56:57;3.30;99.90
22558;DHT22;11445;53.816;8.902;2023-01-24T08:59:24;3.30;99.90
22558;DHT22;11445;53.816;8.902;2023-01-24T09:01:51;3.40;99.90
22558;DHT22;11445;53.816;8.902;2023-01-24T09:04:18;3.40;99.90
22558;DHT22;11445;53.816;8.902;2023-01-24T09:06:45;3.40;99.90
22558;DHT22;11445;53.816;8.902;2023-01-24T09:09:15;3.40;99.90
22558;DHT22;11445;53.816;8.902;2023-01-24T09:11:42;3.40;99.90
22558;DHT22;11445;53.816;8.902;2023-01-24T09:14:09;3.50;99.90
22558;DHT22;11445;53.816;8.902;2023-01-24T09:16:36;3.50;99.90
22558;DHT22;11445;53.816;8.902;2023-01-24T09:19:03;3.50;99.90
22558;DHT22;11445;53.816;8.902;2023-01-24T09:21:30;3.50;99.90
22558;DHT22;11445;53.816;8.902;2023-01-24T09:23:57;3.50;99.90
22558;DHT22;11445;53.816;8.902;2023-01-24T09:26:26;3.60;99.90
22558;DHT22;11445;53.816;8.902;2023-01-24T09:28:53;3.60;99.90
22558;DHT22;11445;53.816;8.902;2023-01-24T09:31:20;3.60;99.90
22558;DHT22;11445;53.816;8.902;2023-01-24T09:33:48;3.60;99.90
22558;DHT22;11445;53.816;8.902;2023-01-24T09:36:14;3.60;99.90
22558;DHT22;11445;53.816;8.902;2023-01-24T09:38:41;3.60;99.90
22558;DHT22;11445;53.816;8.902;2023-01-24T09:41:16;3.60;99.90
22558;DHT22;11445;53.816;8.902;2023-01-24T09:43:50;3.60;99.90
22558;DHT22;11445;53.816;8.902;2023-01-24T09:46:22;3.60;99.90
22558;DHT22;11445;53.816;8.902;2023-01-24T09:48:57;3.60;99.90
22558;DHT22;11445;53.816;8.902;2023-01-24T09:51:29;3.70;99.90
22558;DHT22;11445;53.816;8.902;2023-01-24T09:54:00;3.60;99.90
22558;DHT22;11445;53.816;8.902;2023-01-24T09:56:33;3.60;99.90
22558;DHT22;11445;53.816;8.902;2023-01-24T09:59:12;3.60;99.90
22558;DHT22;11445;53.816;8.902;2023-01-24T10:01:40;3.60;99.90
22558;DHT22;11445;53.816;8.902;2023-01-24T10:04:16;3.70;99.90
22558;DHT22;11445;53.816;8.902;2023-01-24T10:09:42;3.70;99.90
22558;DHT22;11445;53.816;8.902;2023-01-24T10:12:19;3.70;99.90
22558;DHT22;11445;53.816;8.902;2023-01-24T10:14:59;3.70;99.90
22558;DHT22;11445;53.816;8.902;2023-01-24T10:17:48;3.70;99.90
22558;DHT22;11445;53.816;8.902;2023-01-24T10:20:31;3.70;99.90
22558;DHT22;11445;53.816;8.902;2023-01-24T10:23:09;3.70;99.90
22558;DHT22;11445;53.816;8.902;2023-01-24T10:28:24;3.70;99.90
22558;DHT22;11445;53.816;8.902;2023-01-24T10:30:58;3.70;99.90
22558;DHT22;11445;53.816;8.902;2023-01-24T10:33:31;3.70;99.90
22558;DHT22;11445;53.816;8.902;2023-01-24T10:36:01;3.70;99.90
22558;DHT22;11445;53.816;8.902;2023-01-24T10:38:29;3.80;99.90
22558;DHT22;11445;53.816;8.902;2023-01-24T10:41:04;3.80;99.90
22558;DHT22;11445;53.816;8.902;2023-01-24T10:43:37;3.80;99.90
22558;DHT22;11445;53.816;8.902;2023-01-24T10:46:15;3.70;99.90
22558;DHT22;11445;53.816;8.902;2023-01-24T10:48:49;3.80;99.90
22558;DHT22;11445;53.816;8.902;2023-01-24T10:51:19;3.80;99.90
22558;DHT22;11445;53.816;8.902;2023-01-24T10:53:46;3.80;99.90
22558;DHT22;11445;53.816;8.902;2023-01-24T10:56:17;3.80;99.90
22558;DHT22;11445;53.816;8.902;2023-01-24T10:58:55;3.80;99.90
22558;DHT22;11445;53.816;8.902;2023-01-24T11:01:35;3.80;99.90
22558;DHT22;11445;53.816;8.902;2023-01-24T11:04:14;4.10;99.90
22558;DHT22;11445;53.816;8.902;2023-01-24T11:06:45;4.10;99.90
22558;DHT22;11445;53.816;8.902;2023-01-24T11:09:15;4.10;99.90
22558;DHT22;11445;53.816;8.902;2023-01-24T11:11:45;4.10;99.90
22558;DHT22;11445;53.816;8.902;2023-01-24T11:14:16;4.00;99.90
22558;DHT22;11445;53.816;8.902;2023-01-24T11:16:47;4.10;99.90
22558;DHT22;11445;53.816;8.902;2023-01-24T11:19:26;4.00;99.90
22558;DHT22;11445;53.816;8.902;2023-01-24T11:21:56;4.00;99.90
22558;DHT22;11445;53.816;8.902;2023-01-24T11:24:23;4.00;99.90
22558;DHT22;11445;53.816;8.902;2023-01-24T11:26:54;4.00;99.90
22558;DHT22;11445;53.816;8.902;2023-01-24T11:29:21;4.00;99.90
22558;DHT22;11445;53.816;8.902;2023-01-24T11:31:51;4.00;99.90
22558;DHT22;11445;53.816;8.902;2023-01-24T11:34:41;4.00;99.90
22558;DHT22;11445;53.816;8.902;2023-01-24T11:37:31;4.00;99.90
22558;DHT22;11445;53.816;8.902;2023-01-24T11:40:12;4.00;99.90
22558;DHT22;11445;53.816;8.902;2023-01-24T11:42:49;4.00;99.90
22558;DHT22;11445;53.816;8.902;2023-01-24T11:45:26;4.00;99.90
22558;DHT22;11445;53.816;8.902;2023-01-24T11:48:06;3.90;99.90
22558;DHT22;11445;53.816;8.902;2023-01-24T11:50:40;3.90;99.90
22558;DHT22;11445;53.816;8.902;2023-01-24T11:53:21;3.90;99.90
22558;DHT22;11445;53.816;8.902;2023-01-24T11:56:00;3.90;99.90
22558;DHT22;11445;53.816;8.902;2023-01-24T11:58:44;3.90;99.90
22558;DHT22;11445;53.816;8.902;2023-01-24T12:01:19;3.90;99.90
22558;DHT22;11445;53.816;8.902;2023-01-24T12:04:13;3.80;99.90
22558;DHT22;11445;53.816;8.902;2023-01-24T12:06:49;3.80;99.90
22558;DHT22;11445;53.816;8.902;2023-01-24T12:09:21;3.80;99.90
22558;DHT22;11445;53.816;8.902;2023-01-24T12:11:55;3.80;99.90
22558;DHT22;11445;53.816;8.902;2023-01-24T12:17:45;3.80;99.90
22558;DHT22;11445;53.816;8.902;2023-01-24T12:20:26;4.00;99.90
22558;DHT22;11445;53.816;8.902;2023-01-24T12:23:08;4.30;99.90
22558;DHT22;11445;53.816;8.902;2023-01-24T12:25:39;4.30;99.90
22558;DHT22;11445;53.816;8.902;2023-01-24T12:28:13;4.30;99.90
22558;DHT22;11445;53.816;8.902;2023-01-24T12:30:43;4.20;99.90
22558;DHT22;11445;53.816;8.902;2023-01-24T12:33:21;4.20;99.90
22558;DHT22;11445;53.816;8.902;2023-01-24T12:35:54;4.10;99.90
22558;DHT22;11445;53.816;8.902;2023-01-24T12:38:26;4.00;99.90
22558;DHT22;11445;53.816;8.902;2023-01-24T12:41:00;4.00;99.90
22558;DHT22;11445;53.816;8.902;2023-01-24T12:43:34;4.00;99.90
22558;DHT22;11445;53.816;8.902;2023-01-24T12:46:10;3.90;99.90
22558;DHT22;11445;53.816;8.902;2023-01-24T12:48:42;4.00;99.90
22558;DHT22;11445;53.816;8.902;2023-01-24T12:51:19;3.90;99.90
22558;DHT22;11445;53.816;8.902;2023-01-24T12:53:57;3.90;99.90
22558;DHT22;11445;53.816;8.902;2023-01-24T12:56:30;3.90;99.90
22558;DHT22;11445;53.816;8.902;2023-01-24T12:58:58;3.90;99.90
22558;DHT22;11445;53.816;8.902;2023-01-24T13:01:51;3.90;99.90
22558;DHT22;11445;53.816;8.902;2023-01-24T13:04:32;3.90;99.90
22558;DHT22;11445;53.816;8.902;2023-01-24T13:07:11;3.90;99.90
22558;DHT22;11445;53.816;8.902;2023-01-24T13:09:44;3.80;99.90
22558;DHT22;11445;53.816;8.902;2023-01-24T13:12:18;3.80;99.90
22558;DHT22;11445;53.816;8.902;2023-01-24T13:14:51;3.90;99.90
22558;DHT22;11445;53.816;8.902;2023-01-24T13:20:27;3.80;99.90
22558;DHT22;11445;53.816;8.902;2023-01-24T13:23:13;3.80;99.90
22558;DHT22;11445;53.816;8.902;2023-01-24T13:26:20;3.90;99.90
22558;DHT22;11445;53.816;8.902;2023-01-24T13:28:56;3.90;99.90
22558;DHT22;11445;53.816;8.902;2023-01-24T13:31:29;3.90;99.90
22558;DHT22;11445;53.816;8.902;2023-01-24T13:34:00;3.90;99.90
22558;DHT22;11445;53.816;8.902;2023-01-24T13:36:32;3.80;99.90
22558;DHT22;11445;53.816;8.902;2023-01-24T13:39:01;3.80;99.90
22558;DHT22;11445;53.816;8.902;2023-01-24T13:41:33;3.80;99.90
22558;DHT22;11445;53.816;8.902;2023-01-24T13:44:02;3.80;99.90
22558;DHT22;11445;53.816;8.902;2023-01-24T13:47:01;3.80;99.90
22558;DHT22;11445;53.816;8.902;2023-01-24T13:49:33;3.80;99.90
22558;DHT22;11445;53.816;8.902;2023-01-24T13:52:02;3.70;99.90
22558;DHT22;11445;53.816;8.902;2023-01-24T13:54:38;3.70;99.90
22558;DHT22;11445;53.816;8.902;2023-01-24T13:57:17;3.70;99.90
22558;DHT22;11445;53.816;8.902;2023-01-24T14:00:02;3.70;99.90
22558;DHT22;11445;53.816;8.902;2023-01-24T14:02:29;3.70;99.90
22558;DHT22;11445;53.816;8.902;2023-01-24T14:04:57;3.70;99.90
22558;DHT22;11445;53.816;8.902;2023-01-24T14:07:27;3.70;99.90
22558;DHT22;11445;53.816;8.902;2023-01-24T14:10:00;3.70;99.90
22558;DHT22;11445;53.816;8.902;2023-01-24T14:12:28;3.70;99.90
22558;DHT22;11445;53.816;8.902;2023-01-24T14:15:02;3.70;99.90
22558;DHT22;11445;53.816;8.902;2023-01-24T14:17:47;3.70;99.90
22558;DHT22;11445;53.816;8.902;2023-01-24T14:20:35;3.70;99.90
22558;DHT22;11445;53.816;8.902;2023-01-24T14:23:13;3.70;99.90
22558;DHT22;11445;53.816;8.902;2023-01-24T14:25:47;3.70;99.90
22558;DHT22;11445;53.816;8.902;2023-01-24T14:28:23;3.70;99.90
22558;DHT22;11445;53.816;8.902;2023-01-24T14:30:55;3.70;99.90
22558;DHT22;11445;53.816;8.902;2023-01-24T14:33:34;3.70;99.90
22558;DHT22;11445;53.816;8.902;2023-01-24T14:36:21;3.70;99.90
22558;DHT22;11445;53.816;8.902;2023-01-24T14:39:17;3.70;99.90
22558;DHT22;11445;53.816;8.902;2023-01-24T14:41:47;3.70;99.90
22558;DHT22;11445;53.816;8.902;2023-01-24T14:44:16;3.70;99.90
22558;DHT22;11445;53.816;8.902;2023-01-24T14:46:54;3.60;99.90
22558;DHT22;11445;53.816;8.902;2023-01-24T14:49:28;4.10;99.90
22558;DHT22;11445;53.816;8.902;2023-01-24T14:51:56;4.10;99.90
22558;DHT22;11445;53.816;8.902;2023-01-24T14:54:24;4.20;99.90
22558;DHT22;11445;53.816;8.902;2023-01-24T14:56:52;4.10;99.90
22558;DHT22;11445;53.816;8.902;2023-01-24T14:59:20;4.10;99.90
22558;DHT22;11445;53.816;8.902;2023-01-24T15:01:50;4.10;99.90
22558;DHT22;11445;53.816;8.902;2023-01-24T15:04:23;4.10;99.90
22558;DHT22;11445;53.816;8.902;2023-01-24T15:07:11;4.00;99.90
22558;DHT22;11445;53.816;8.902;2023-01-24T15:09:39;4.00;99.90
22558;DHT22;11445;53.816;8.902;2023-01-24T15:12:24;4.00;99.90
22558;DHT22;11445;53.816;8.902;2023-01-24T15:14:53;3.90;99.90
22558;DHT22;11445;53.816;8.902;2023-01-24T15:17:23;3.80;99.90
22558;DHT22;11445;53.816;8.902;2023-01-24T15:19:54;3.80;99.90
22558;DHT22;11445;53.816;8.902;2023-01-24T15:22:25;3.80;99.90
22558;DHT22;11445;53.816;8.902;2023-01-24T15:24:54;3.70;99.90
22558;DHT22;11445;53.816;8.902;2023-01-24T15:27:34;3.70;99.90
22558;DHT22;11445;53.816;8.902;2023-01-24T15:30:19;3.70;99.90
22558;DHT22;11445;53.816;8.902;2023-01-24T15:32:47;3.70;99.90
22558;DHT22;11445;53.816;8.902;2023-01-24T15:35:26;3.80;99.90
22558;DHT22;11445;53.816;8.902;2023-01-24T15:38:21;3.80;99.90
22558;DHT22;11445;53.816;8.902;2023-01-24T15:41:16;3.80;99.90
22558;DHT22;11445;53.816;8.902;2023-01-24T15:43:50;3.90;99.90
22558;DHT22;11445;53.816;8.902;2023-01-24T15:46:22;3.80;99.90
22558;DHT22;11445;53.816;8.902;2023-01-24T15:49:20;3.80;99.90
22558;DHT22;11445;53.816;8.902;2023-01-24T15:51:59;3.90;99.90
22558;DHT22;11445;53.816;8.902;2023-01-24T15:54:27;4.70;99.90
22558;DHT22;11445;53.816;8.902;2023-01-24T15:56:57;5.10;99.90
22558;DHT22;11445;53.816;8.902;2023-01-24T15:59:25;5.20;99.90
22558;DHT22;11445;53.816;8.902;2023-01-24T16:01:53;5.00;99.90
22558;DHT22;11445;53.816;8.902;2023-01-24T16:04:22;4.80;99.90
22558;DHT22;11445;53.816;8.902;2023-01-24T16:06:49;4.60;99.90
22558;DHT22;11445;53.816;8.902;2023-01-24T16:09:17;4.40;99.90
22558;DHT22;11445;53.816;8.902;2023-01-24T16:11:45;4.30;99.90
22558;DHT22;11445;53.816;8.902;2023-01-24T16:14:16;4.10;99.90
22558;DHT22;11445;53.816;8.902;2023-01-24T16:16:46;4.00;99.90
22558;DHT22;11445;53.816;8.902;2023-01-24T16:19:15;3.90;99.90
22558;DHT22;11445;53.816;8.902;2023-01-24T16:21:42;3.80;99.90
22558;DHT22;11445;53.816;8.902;2023-01-24T16:24:10;3.80;99.90